WetterOnline ( https://www.wetteronline.de )

Wetter aktuell Öhringen

Aktuelles Wetter: Öhringen (277m)

6-stündlich | Neueste Meldungen
Ortszeit Temperatur Wetter
Do, 17.10. 2:00 12.1° C wolkig
Mi, 16.10. 20:00 12.7° C wolkenlos
Mi, 16.10. 14:00 15.0° C bedeckt
Mi, 16.10. 8:00 10.6° C Sprühregen
Mi, 16.10. 2:00 11.2° C Regen
Di, 15.10. 20:00 13.5° C leichter Regen
Di, 15.10. 14:00 20.8° C bewölkt
Di, 15.10. 8:00 12.3° C fast wolkenlos
Ortszeit Temperatur Wetter
Do, 17.10. 3:30 11.5° C bedeckt
Do, 17.10. 3:20 11.5° C bedeckt
Do, 17.10. 3:10 11.6° C bedeckt
Do, 17.10. 3:00 12.2° C bedeckt
Do, 17.10. 2:50 12.2° C bedeckt
Do, 17.10. 2:40 11.8° C bedeckt
Do, 17.10. 2:30 12.3° C bedeckt
Do, 17.10. 2:00 12.1° C wolkig
Do, 17.10. 1:30 11.7° C wolkig
Do, 17.10. 1:00 11.4° C wolkig
Do, 17.10. 0:30 11.7° C bewölkt
Ortszeit Relative Feuchte Sichtweite
Do, 17.10. 2:00 69% 65 km
Mi, 16.10. 20:00 80% 55 km
Mi, 16.10. 14:00 63% >70 km
Mi, 16.10. 8:00 86% 29 km
Mi, 16.10. 2:00 91% 45 km
Di, 15.10. 20:00 93% 13 km
Di, 15.10. 14:00 66% 45 km
Di, 15.10. 8:00 89% 28 km
Ortszeit Relative Feuchte Sichtweite
Do, 17.10. 3:30 72% 55 km
Do, 17.10. 3:20 72% -
Do, 17.10. 3:10 71% -
Do, 17.10. 3:00 66% 55 km
Do, 17.10. 2:50 66% -
Do, 17.10. 2:40 69% -
Do, 17.10. 2:30 67% 65 km
Do, 17.10. 2:00 69% 65 km
Do, 17.10. 1:30 72% 60 km
Do, 17.10. 1:00 75% >70 km
Do, 17.10. 0:30 74% 65 km
Ortszeit Niederschlagsmenge Niederschlagsart
Do, 17.10. 2:00 0.0 l/m2 in 6 Std. -
Mi, 16.10. 20:00 0.1 l/m2 in 12 Std. -
Mi, 16.10. 14:00 0.1 l/m2 in 6 Std. Regen
Mi, 16.10. 8:00 5 l/m2 in 12 Std. Regen
Mi, 16.10. 2:00 5 l/m2 in 6 Std. Regen
Di, 15.10. 20:00 2 l/m2 in 12 Std. Regen
Di, 15.10. 14:00 0.0 l/m2 in 6 Std. -
Di, 15.10. 8:00 0.0 l/m2 in 12 Std. -
Ortszeit Niederschlagsmenge Niederschlagsart
Do, 17.10. 3:30 0.0 l/m2 in 1 Std. -
Do, 17.10. 3:20 keine Meldung -
Do, 17.10. 3:10 keine Meldung -
Do, 17.10. 3:00 0.0 l/m2 in 1 Std. -
Do, 17.10. 2:50 keine Meldung -
Do, 17.10. 2:40 keine Meldung -
Do, 17.10. 2:30 0.0 l/m2 in 1 Std. -
Do, 17.10. 2:00 0.0 l/m2 in 1 Std. -
Do, 17.10. 1:30 0.0 l/m2 in 1 Std. -
Do, 17.10. 1:00 0.0 l/m2 in 1 Std. -
Do, 17.10. 0:30 0.0 l/m2 in 1 Std. -
Ortszeit Stärke Spitze Richtung
km/h Bft. km/h Grad Sektor
Do, 17.10. 2:00 4 1 18 210° SW
Mi, 16.10. 20:00 6 1 28 150° SO
Mi, 16.10. 14:00 15 3 33 230° SW
Mi, 16.10. 8:00 13 3 39 230° SW
Mi, 16.10. 2:00 22 4 50 250° W
Di, 15.10. 20:00 15 3 37 260° W
Di, 15.10. 14:00 15 3 30 250° W
Di, 15.10. 8:00 9 2 13 70° O
Ortszeit Stärke Spitze Richtung
km/h Bft. km/h Grad Sektor
Do, 17.10. 3:30 0 0 11 - -
Do, 17.10. 3:20 2 1 - 20° N
Do, 17.10. 3:10 4 1 - 180° S
Do, 17.10. 3:00 7 2 14 160° S
Do, 17.10. 2:50 7 2 - 160° S
Do, 17.10. 2:40 7 2 - 140° SO
Do, 17.10. 2:30 7 2 14 180° S
Do, 17.10. 2:00 4 1 11 210° SW
Do, 17.10. 1:30 7 2 11 130° SO
Do, 17.10. 1:00 7 2 14 140° SO
Do, 17.10. 0:30 7 2 14 140° SO
Ortszeit Untergrenze Bedeckung Gattung
total tief tief mittel hoch
Do, 17.10. 2:00 4800 m 5/8 5/8 - - -
Mi, 16.10. 20:00 - 0/8 0/8 - - -
Mi, 16.10. 14:00 1140 m 8/8 8/8 - - -
Mi, 16.10. 8:00 870 m 8/8 8/8 - - -
Mi, 16.10. 2:00 300 m 8/8 7/8 - - -
Di, 15.10. 20:00 1500 m 7/8 7/8 - - -
Di, 15.10. 14:00 5700 m 8/8 4/8 - - -
Di, 15.10. 8:00 10500 m 1/8 0/8 - - -
Ortszeit Bedeckungsgrad in Achtel und Wolkenuntergrenze
Do, 17.10. 3:30 6(3600m) 8(4200m) 8(6000m)
Do, 17.10. 3:20 6(3600m) 8(4200m) 8(6000m)
Do, 17.10. 3:10 8(4200m) 8(6000m) 8(8700m)
Do, 17.10. 3:00 8(4500m) 8(6300m) 8(6900m)
Do, 17.10. 2:50 8(4500m) 8(6300m) 8(6900m)
Do, 17.10. 2:40 8(4500m) 8(6900m) 8(8100m)
Do, 17.10. 2:30 8(4500m) 8(6600m) 8(7500m)
Do, 17.10. 2:00 5(4800m) 5(9000m)
Do, 17.10. 1:30 4(5100m) 6(9000m) 7(9000m)
Do, 17.10. 1:00 2(6000m) 7(9000m) 7(9000m)
Do, 17.10. 0:30 7(6000m) 7(7200m) 7(9000m)
Ortszeit Luftdruck NN (hPa) Tendenz (hPa in 3 Std.)
Do, 17.10. 2:00 1015 + 0,5
Mi, 16.10. 20:00 1014 + 0,1
Mi, 16.10. 14:00 1015 - 0,7
Mi, 16.10. 8:00 1015 + 0,8
Mi, 16.10. 2:00 1013 + 2,3
Di, 15.10. 20:00 1009 + 2,3
Di, 15.10. 14:00 1005 - 0,8
Di, 15.10. 8:00 1008 - 1,4
Ortszeit Luftdruck NN (hPa) Tendenz (hPa in 3 Std.)
Do, 17.10. 3:30 1015 + 0,3
Do, 17.10. 3:20 1015 keine Meldung
Do, 17.10. 3:10 1015 keine Meldung
Do, 17.10. 3:00 1015 + 0,6
Do, 17.10. 2:50 1015 keine Meldung
Do, 17.10. 2:40 1015 keine Meldung
Do, 17.10. 2:30 1015 + 0,6
Do, 17.10. 2:00 1015 + 0,5
Do, 17.10. 1:30 1015 + 0,1
Do, 17.10. 1:00 1014 - 0,1
Do, 17.10. 0:30 1015 + 0,1
Ortszeit Schneehöhe (cm)
Do, 17.10. 2:00 0
Mi, 16.10. 20:00 0
Mi, 16.10. 14:00 0
Mi, 16.10. 8:00 0
Mi, 16.10. 2:00 0
Di, 15.10. 20:00 0
Di, 15.10. 14:00 0
Di, 15.10. 8:00 0
Ortszeit Schneehöhe (cm)
Do, 17.10. 3:30 0
Do, 17.10. 3:20 0
Do, 17.10. 3:10 0
Do, 17.10. 3:00 0
Do, 17.10. 2:50 0
Do, 17.10. 2:40 0
Do, 17.10. 2:30 0
Do, 17.10. 2:00 0
Do, 17.10. 1:30 0
Do, 17.10. 1:00 0
Do, 17.10. 0:30 0
Link zu dieser Seite / Seite empfehlen

Das Wetter in ...